createdAt,value
2022-08-23T00:01:20.121Z,17.44
2022-08-23T00:03:50.273Z,17.42
2022-08-23T00:06:18.622Z,17.41
2022-08-23T00:08:48.365Z,17.42
2022-08-23T00:11:28.875Z,17.43
2022-08-23T00:13:57.572Z,17.43
2022-08-23T00:16:25.605Z,17.45
2022-08-23T00:18:53.343Z,17.46
2022-08-23T00:21:21.469Z,17.47
2022-08-23T00:23:49.190Z,17.46
2022-08-23T00:26:20.051Z,17.44
2022-08-23T00:28:48.651Z,17.41
2022-08-23T00:31:16.517Z,17.41
2022-08-23T00:33:44.436Z,17.43
2022-08-23T00:36:12.453Z,17.45
2022-08-23T00:38:40.600Z,17.48
2022-08-23T00:41:08.488Z,17.51
2022-08-23T00:43:58.976Z,17.53
2022-08-23T00:46:59.442Z,17.52
2022-08-23T00:49:28.153Z,17.53
2022-08-23T00:52:02.062Z,17.53
2022-08-23T00:54:31.412Z,17.52
2022-08-23T00:57:04.371Z,17.52
2022-08-23T00:59:32.648Z,17.52
2022-08-23T01:02:01.079Z,17.51
2022-08-23T01:04:33.703Z,17.51
2022-08-23T01:07:07.131Z,17.51
2022-08-23T01:09:36.648Z,17.53
2022-08-23T01:12:09.181Z,17.53
2022-08-23T01:14:41.273Z,17.55
2022-08-23T01:17:14.430Z,17.58
2022-08-23T01:19:50.017Z,17.57
2022-08-23T01:22:24.921Z,17.57
2022-08-23T01:25:06.970Z,17.56
2022-08-23T01:27:36.007Z,17.56
2022-08-23T01:30:07.076Z,17.56
2022-08-23T01:32:41.123Z,17.56
2022-08-23T01:35:10.629Z,17.56
2022-08-23T01:37:38.951Z,17.55
2022-08-23T01:40:09.331Z,17.55
2022-08-23T01:42:41.444Z,17.56
2022-08-23T01:45:12.600Z,17.60
2022-08-23T01:47:41.911Z,17.61
2022-08-23T01:50:12.667Z,17.62
2022-08-23T01:52:57.304Z,17.60
2022-08-23T01:55:25.675Z,17.53
2022-08-23T01:58:00.352Z,17.48
2022-08-23T02:00:32.296Z,17.43
2022-08-23T02:03:00.760Z,17.38
2022-08-23T02:05:30.103Z,17.33
2022-08-23T02:08:19.759Z,17.27
2022-08-23T02:10:47.295Z,17.22
2022-08-23T02:13:15.207Z,17.20
2022-08-23T02:15:44.233Z,17.20
2022-08-23T02:18:15.196Z,17.16
2022-08-23T02:20:45.686Z,17.17
2022-08-23T02:23:13.356Z,17.17
2022-08-23T02:25:42.160Z,17.14
2022-08-23T02:28:10.200Z,17.15
2022-08-23T02:30:39.409Z,17.16
2022-08-23T02:33:08.394Z,17.19
2022-08-23T02:35:36.976Z,17.20
2022-08-23T02:38:05.908Z,17.20
2022-08-23T02:40:34.771Z,17.19
2022-08-23T02:43:03.520Z,17.16
2022-08-23T02:45:31.595Z,17.13
2022-08-23T02:48:02.791Z,17.09
2022-08-23T02:50:30.987Z,17.09
2022-08-23T02:52:59.356Z,17.06
2022-08-23T02:55:27.622Z,17.04
2022-08-23T02:57:55.899Z,17.00
2022-08-23T03:00:25.662Z,16.99
2022-08-23T03:02:53.411Z,16.98
2022-08-23T03:05:21.299Z,17.01
2022-08-23T03:07:49.079Z,17.05
2022-08-23T03:10:16.692Z,17.05
2022-08-23T03:12:44.212Z,17.02
2022-08-23T03:15:12.910Z,16.98
2022-08-23T03:17:41.402Z,16.99
2022-08-23T03:20:11.464Z,16.96
2022-08-23T03:22:39.644Z,16.99
2022-08-23T03:25:17.241Z,16.98
2022-08-23T03:27:45.609Z,16.94
2022-08-23T03:30:19.104Z,16.88
2022-08-23T03:32:48.958Z,16.88
2022-08-23T03:35:18.041Z,16.88
2022-08-23T03:37:46.046Z,16.87
2022-08-23T03:40:14.757Z,16.85
2022-08-23T03:42:43.878Z,16.84
2022-08-23T03:45:14.555Z,16.84
2022-08-23T03:47:43.578Z,16.88
2022-08-23T03:50:12.108Z,16.85
2022-08-23T03:52:40.981Z,16.83
2022-08-23T03:55:09.771Z,16.79
2022-08-23T03:57:39.442Z,16.81
2022-08-23T04:00:10.406Z,16.81
2022-08-23T04:02:39.595Z,16.80
2022-08-23T04:05:10.921Z,16.79
2022-08-23T04:07:39.969Z,16.78
2022-08-23T04:10:13.109Z,16.79
2022-08-23T04:12:41.808Z,16.78
2022-08-23T04:15:11.322Z,16.76
2022-08-23T04:17:39.026Z,16.73
2022-08-23T04:20:08.885Z,16.71
2022-08-23T04:22:37.119Z,16.73
2022-08-23T04:25:33.252Z,16.71
2022-08-23T04:27:54.858Z,16.72
2022-08-23T04:30:23.414Z,16.70
2022-08-23T04:32:51.776Z,16.72
2022-08-23T04:35:19.545Z,16.72
2022-08-23T04:37:54.742Z,16.72
2022-08-23T04:40:40.833Z,16.73
2022-08-23T04:43:08.513Z,16.72
2022-08-23T04:45:39.611Z,16.71
2022-08-23T04:48:11.709Z,16.73
2022-08-23T04:50:40.638Z,16.70
2022-08-23T04:53:09.435Z,16.73
2022-08-23T04:55:37.833Z,16.75
2022-08-23T04:58:06.587Z,16.75
2022-08-23T05:00:34.506Z,16.75
2022-08-23T05:03:02.866Z,16.75
2022-08-23T05:05:31.750Z,16.78
2022-08-23T05:08:00.895Z,16.79
2022-08-23T05:10:29.839Z,16.77
2022-08-23T05:12:57.541Z,16.76
2022-08-23T05:15:25.183Z,16.77
2022-08-23T05:17:53.730Z,16.79
2022-08-23T05:20:22.478Z,16.79
2022-08-23T05:22:50.201Z,16.79
2022-08-23T05:25:19.083Z,16.81
2022-08-23T05:27:47.130Z,16.86
2022-08-23T05:30:15.700Z,16.86
2022-08-23T05:32:44.228Z,16.85
2022-08-23T05:35:12.214Z,16.86
2022-08-23T05:37:39.930Z,16.85
2022-08-23T05:40:09.931Z,16.87
2022-08-23T05:42:38.745Z,16.88
2022-08-23T05:45:09.032Z,16.92
2022-08-23T05:47:39.751Z,16.96
2022-08-23T05:50:10.517Z,16.97
2022-08-23T05:52:39.558Z,17.01
2022-08-23T05:55:09.431Z,17.04
2022-08-23T05:57:38.350Z,17.06
2022-08-23T06:00:10.385Z,17.08
2022-08-23T06:02:38.320Z,17.10
2022-08-23T06:05:09.495Z,17.13
2022-08-23T06:07:38.184Z,17.18
2022-08-23T06:10:07.849Z,17.22
2022-08-23T06:12:43.818Z,17.24
2022-08-23T06:15:12.376Z,17.26
2022-08-23T06:17:43.519Z,17.36
2022-08-23T06:20:11.636Z,17.35
2022-08-23T06:22:40.141Z,17.38
2022-08-23T06:25:09.882Z,17.44
2022-08-23T06:27:37.591Z,17.56
2022-08-23T06:30:07.697Z,17.43
2022-08-23T06:32:40.783Z,17.32
2022-08-23T06:35:29.249Z,17.36
2022-08-23T06:37:56.988Z,17.34
2022-08-23T06:40:28.505Z,17.33
2022-08-23T06:42:57.527Z,17.38
2022-08-23T06:45:33.861Z,17.41
2022-08-23T06:48:03.651Z,17.50
2022-08-23T06:50:32.156Z,17.53
2022-08-23T06:53:00.223Z,17.55
2022-08-23T06:55:28.321Z,17.63
2022-08-23T06:57:56.005Z,17.70
2022-08-23T07:00:23.721Z,17.70
2022-08-23T07:02:51.502Z,17.65
2022-08-23T07:05:19.275Z,17.68
2022-08-23T07:07:46.870Z,17.71
2022-08-23T07:10:15.020Z,17.81
2022-08-23T07:12:42.937Z,17.89
2022-08-23T07:15:12.105Z,17.96
2022-08-23T07:17:39.791Z,18.03
2022-08-23T07:20:08.769Z,18.04
2022-08-23T07:22:36.467Z,18.00
2022-08-23T07:25:04.919Z,17.96
2022-08-23T07:27:32.576Z,17.99
2022-08-23T07:30:00.216Z,17.93
2022-08-23T07:32:27.996Z,18.10
2022-08-23T07:34:55.897Z,17.96
2022-08-23T07:37:23.961Z,17.94
2022-08-23T07:39:51.814Z,17.90
2022-08-23T07:42:25.014Z,17.93
2022-08-23T07:44:53.768Z,17.97
2022-08-23T07:47:22.138Z,17.94
2022-08-23T07:49:50.270Z,17.94
2022-08-23T07:52:17.919Z,17.92
2022-08-23T07:54:49.426Z,17.92
2022-08-23T07:57:19.310Z,17.95
2022-08-23T07:59:47.989Z,17.98
2022-08-23T08:02:15.603Z,17.96
2022-08-23T08:04:43.705Z,17.90
2022-08-23T08:07:19.275Z,17.89
2022-08-23T08:09:48.436Z,17.93
2022-08-23T08:12:16.373Z,17.99
2022-08-23T08:14:44.411Z,18.02
2022-08-23T08:17:12.022Z,18.04
2022-08-23T08:19:40.743Z,18.06
2022-08-23T08:22:08.728Z,18.07
2022-08-23T08:24:36.300Z,18.15
2022-08-23T08:27:04.858Z,18.22
2022-08-23T08:29:32.785Z,18.23
2022-08-23T08:32:00.528Z,18.24
2022-08-23T08:34:28.211Z,18.23
2022-08-23T08:36:58.538Z,18.28
2022-08-23T08:39:29.409Z,18.28
2022-08-23T08:42:09.117Z,18.28
2022-08-23T08:44:41.655Z,18.30
2022-08-23T08:47:15.107Z,18.36
2022-08-23T08:49:49.457Z,18.47
2022-08-23T08:52:22.145Z,18.59
2022-08-23T08:54:55.862Z,18.69
2022-08-23T08:57:27.489Z,18.79
2022-08-23T09:00:01.740Z,18.92
2022-08-23T09:02:33.935Z,18.95
2022-08-23T09:05:07.048Z,18.99
2022-08-23T09:07:50.057Z,19.02
2022-08-23T09:10:43.514Z,19.05
2022-08-23T09:13:36.696Z,19.01
2022-08-23T09:16:16.877Z,19.00
2022-08-23T09:18:45.324Z,19.01
2022-08-23T09:21:15.520Z,19.00
2022-08-23T09:23:45.556Z,19.03
2022-08-23T09:26:24.283Z,19.03
2022-08-23T09:28:55.005Z,19.05
2022-08-23T09:31:41.384Z,19.06
2022-08-23T09:34:14.617Z,19.03
2022-08-23T09:36:42.717Z,19.06
2022-08-23T09:39:30.968Z,19.03
2022-08-23T09:42:00.115Z,19.07
2022-08-23T09:44:38.707Z,19.19
2022-08-23T09:47:11.489Z,19.34
2022-08-23T09:49:40.606Z,19.40
2022-08-23T09:52:21.924Z,19.47
2022-08-23T09:54:57.595Z,19.49
2022-08-23T09:57:29.296Z,19.50
2022-08-23T10:00:17.273Z,19.49
2022-08-23T10:02:44.925Z,19.49
2022-08-23T10:05:27.645Z,19.54
2022-08-23T10:07:59.266Z,19.55
2022-08-23T10:10:31.270Z,19.58
2022-08-23T10:12:59.898Z,19.57
2022-08-23T10:15:44.772Z,19.56
2022-08-23T10:18:24.228Z,19.58
2022-08-23T10:21:01.098Z,19.55
2022-08-23T10:23:41.033Z,19.51
2022-08-23T10:26:13.545Z,19.48
2022-08-23T10:29:09.532Z,19.47
2022-08-23T10:31:47.007Z,19.49
2022-08-23T10:34:33.639Z,19.52
2022-08-23T10:37:22.222Z,19.56
2022-08-23T10:40:03.973Z,19.60
2022-08-23T10:42:42.778Z,19.62
2022-08-23T10:45:20.656Z,19.64
2022-08-23T10:48:04.153Z,19.66
2022-08-23T10:50:42.555Z,19.68
2022-08-23T10:53:15.006Z,19.64
2022-08-23T10:56:02.241Z,19.65
2022-08-23T10:58:31.829Z,19.62
2022-08-23T11:01:00.784Z,19.65
2022-08-23T11:03:31.510Z,19.64
2022-08-23T11:06:41.213Z,19.66
2022-08-23T11:09:27.821Z,19.74
2022-08-23T11:12:13.595Z,19.75
2022-08-23T11:14:46.578Z,19.80
2022-08-23T11:17:26.936Z,19.81
2022-08-23T11:19:56.762Z,19.80
2022-08-23T11:22:26.673Z,19.84
2022-08-23T11:24:58.794Z,19.84
2022-08-23T11:27:29.784Z,19.91
2022-08-23T11:29:58.560Z,19.94
2022-08-23T11:32:39.972Z,19.93
2022-08-23T11:35:28.948Z,19.95
2022-08-23T11:38:04.817Z,19.98
2022-08-23T11:40:56.765Z,19.98
2022-08-23T11:43:30.994Z,19.97
2022-08-23T11:46:29.824Z,20.01
2022-08-23T11:49:25.624Z,20.05
2022-08-23T11:52:08.749Z,19.99
2022-08-23T11:54:55.866Z,20.02
2022-08-23T11:57:36.069Z,20.12
2022-08-23T12:00:17.454Z,20.11
2022-08-23T12:02:55.600Z,20.10
2022-08-23T12:05:39.908Z,20.10
2022-08-23T12:08:46.100Z,20.14
2022-08-23T12:11:15.496Z,20.17
2022-08-23T12:13:51.183Z,20.19
2022-08-23T12:16:36.538Z,20.21
2022-08-23T12:19:29.757Z,20.23
2022-08-23T12:22:04.716Z,20.24
2022-08-23T12:24:41.718Z,20.23
2022-08-23T12:27:25.667Z,20.24
2022-08-23T12:30:00.796Z,20.26
2022-08-23T12:32:36.007Z,20.31
2022-08-23T12:35:32.261Z,20.33
2022-08-23T12:38:06.261Z,20.38
2022-08-23T12:40:38.750Z,20.40
2022-08-23T12:43:17.719Z,20.47
2022-08-23T12:45:52.584Z,20.49
2022-08-23T12:48:23.183Z,20.52
2022-08-23T12:50:55.693Z,20.55
2022-08-23T12:53:29.110Z,20.59
2022-08-23T12:56:03.616Z,20.61
2022-08-23T12:58:34.362Z,20.65
2022-08-23T13:01:06.437Z,20.74
2022-08-23T13:03:38.779Z,20.76
2022-08-23T13:06:11.866Z,20.77
2022-08-23T13:08:42.970Z,20.78
2022-08-23T13:11:12.896Z,20.83
2022-08-23T13:13:42.355Z,20.81
2022-08-23T13:16:40.967Z,20.77
2022-08-23T13:19:16.882Z,20.74
2022-08-23T13:21:45.029Z,20.71
2022-08-23T13:24:37.840Z,20.68
2022-08-23T13:27:17.136Z,20.68
2022-08-23T13:29:53.257Z,20.70
2022-08-23T13:32:34.031Z,20.62
2022-08-23T13:35:35.237Z,20.63
2022-08-23T13:38:21.309Z,20.58
2022-08-23T13:40:57.551Z,20.62
2022-08-23T13:43:29.447Z,20.59
2022-08-23T13:45:59.694Z,20.57
2022-08-23T13:48:31.228Z,20.54
2022-08-23T13:51:32.935Z,20.54
2022-08-23T13:54:02.351Z,20.54
2022-08-23T13:56:34.111Z,20.52
2022-08-23T13:59:04.465Z,20.48
2022-08-23T14:01:32.267Z,20.44
2022-08-23T14:03:59.866Z,20.43
2022-08-23T14:06:27.486Z,20.33
2022-08-23T14:08:55.104Z,20.29
2022-08-23T14:11:22.975Z,20.28
2022-08-23T14:13:50.873Z,20.25
2022-08-23T14:16:33.649Z,20.27
2022-08-23T14:19:54.596Z,20.28
2022-08-23T14:21:51.031Z,20.27
2022-08-23T14:24:21.220Z,20.24
2022-08-23T14:26:52.239Z,20.25
2022-08-23T14:29:22.291Z,20.26
2022-08-23T14:31:51.091Z,20.25
2022-08-23T14:34:18.670Z,20.27
2022-08-23T14:39:34.016Z,20.22
2022-08-23T14:42:02.248Z,20.17
2022-08-23T14:44:35.686Z,20.15
2022-08-23T14:47:05.561Z,20.15
2022-08-23T14:49:33.597Z,20.14
2022-08-23T14:52:01.853Z,20.12
2022-08-23T14:54:30.191Z,20.08
2022-08-23T14:56:57.785Z,20.08
2022-08-23T14:59:26.758Z,20.09
2022-08-23T15:01:56.059Z,20.09
2022-08-23T15:04:24.723Z,20.07
2022-08-23T15:07:16.550Z,20.08
2022-08-23T15:09:40.671Z,20.04
2022-08-23T15:14:59.155Z,20.02
2022-08-23T15:17:31.283Z,20.01
2022-08-23T15:19:59.509Z,19.99
2022-08-23T15:22:27.143Z,20.01
2022-08-23T15:24:54.775Z,20.02
2022-08-23T15:27:23.962Z,20.04
2022-08-23T15:29:51.567Z,20.04
2022-08-23T15:32:22.750Z,20.03
2022-08-23T15:34:50.888Z,20.03
2022-08-23T15:37:21.059Z,20.02
2022-08-23T15:39:48.849Z,20.02
2022-08-23T15:42:20.352Z,20.02
2022-08-23T15:44:49.136Z,20.04
2022-08-23T15:47:22.657Z,20.03
2022-08-23T15:49:50.378Z,20.04
2022-08-23T15:52:19.074Z,20.02
2022-08-23T15:54:47.340Z,20.01
2022-08-23T15:57:16.960Z,19.98
2022-08-23T15:59:45.181Z,19.96
2022-08-23T16:02:12.817Z,19.97
2022-08-23T16:04:40.902Z,19.95
2022-08-23T16:07:12.761Z,19.93
2022-08-23T16:09:40.526Z,19.92
2022-08-23T16:12:08.940Z,19.92
2022-08-23T16:14:37.876Z,19.90
2022-08-23T16:17:07.066Z,19.88
2022-08-23T16:19:35.033Z,19.87
2022-08-23T16:22:03.795Z,19.85
2022-08-23T16:24:31.405Z,19.90
2022-08-23T16:26:59.029Z,19.87
2022-08-23T16:29:31.380Z,19.86
2022-08-23T16:31:59.151Z,19.86
2022-08-23T16:34:26.910Z,19.85
2022-08-23T16:36:58.139Z,19.85
2022-08-23T16:39:27.349Z,19.85
2022-08-23T16:41:55.463Z,19.86
2022-08-23T16:44:23.187Z,19.86
2022-08-23T16:46:51.508Z,19.87
2022-08-23T16:49:19.427Z,19.86
2022-08-23T16:51:48.133Z,19.86
2022-08-23T16:54:17.882Z,19.87
2022-08-23T16:56:45.865Z,19.88
2022-08-23T16:59:14.031Z,19.88
2022-08-23T17:01:47.089Z,19.88
2022-08-23T17:04:15.074Z,19.88
2022-08-23T17:06:42.929Z,19.90
2022-08-23T17:09:11.506Z,19.87
2022-08-23T17:11:42.310Z,19.84
2022-08-23T17:14:12.035Z,19.82
2022-08-23T17:16:41.100Z,19.83
2022-08-23T17:19:08.792Z,19.86
2022-08-23T17:21:37.199Z,19.86
2022-08-23T17:24:06.163Z,19.86
2022-08-23T17:26:34.859Z,19.86
2022-08-23T17:29:04.063Z,19.86
2022-08-23T17:31:31.761Z,19.83
2022-08-23T17:34:02.771Z,19.83
2022-08-23T17:36:34.605Z,19.88
2022-08-23T17:39:05.196Z,19.88
2022-08-23T17:41:35.271Z,19.80
2022-08-23T17:44:04.013Z,19.79
2022-08-23T17:46:33.437Z,19.80
2022-08-23T17:49:01.120Z,19.76
2022-08-23T17:51:28.807Z,19.74
2022-08-23T17:53:56.526Z,19.71
2022-08-23T17:56:24.673Z,19.71
2022-08-23T17:58:54.716Z,19.71
2022-08-23T18:01:22.864Z,19.70
2022-08-23T18:03:52.066Z,19.70
2022-08-23T18:06:20.340Z,19.68
2022-08-23T18:08:48.346Z,19.68
2022-08-23T18:11:16.123Z,19.68
2022-08-23T18:13:43.825Z,19.68
2022-08-23T18:16:13.211Z,19.68
2022-08-23T18:18:41.480Z,19.66
2022-08-23T18:21:12.070Z,19.67
2022-08-23T18:23:40.977Z,19.66
2022-08-23T18:26:58.307Z,19.64
2022-08-23T18:30:20.815Z,19.68
2022-08-23T18:33:47.198Z,19.64
2022-08-23T18:36:15.674Z,19.64
2022-08-23T18:38:43.650Z,19.64
2022-08-23T18:41:12.822Z,19.63
2022-08-23T18:43:40.700Z,19.59
2022-08-23T18:46:10.230Z,19.60
2022-08-23T18:48:38.294Z,19.61
2022-08-23T18:51:14.005Z,19.60
2022-08-23T18:53:46.396Z,19.60
2022-08-23T18:56:14.093Z,19.59
2022-08-23T18:58:41.715Z,19.58
2022-08-23T19:01:23.468Z,19.56
2022-08-23T19:03:53.024Z,19.54
2022-08-23T19:06:20.985Z,19.52
2022-08-23T19:08:51.502Z,19.53
2022-08-23T19:11:20.239Z,19.53
2022-08-23T19:13:50.392Z,19.52
2022-08-23T19:16:20.026Z,19.51
2022-08-23T19:18:51.198Z,19.50
2022-08-23T19:21:21.659Z,19.48
2022-08-23T19:23:52.258Z,19.47
2022-08-23T19:26:23.063Z,19.45
2022-08-23T19:28:52.858Z,19.44
2022-08-23T19:31:20.564Z,19.45
2022-08-23T19:33:50.389Z,19.47
2022-08-23T19:36:42.610Z,19.47
2022-08-23T19:39:08.428Z,19.47
2022-08-23T19:41:38.697Z,19.47
2022-08-23T19:44:07.724Z,19.47
2022-08-23T19:46:40.366Z,19.47
2022-08-23T19:49:12.337Z,19.50
2022-08-23T19:51:41.286Z,19.49
2022-08-23T19:54:12.033Z,19.49
2022-08-23T19:56:44.937Z,19.48
2022-08-23T19:59:19.480Z,19.47
2022-08-23T20:01:50.392Z,19.48
2022-08-23T20:04:20.000Z,19.49
2022-08-23T20:06:49.888Z,19.47
2022-08-23T20:09:19.276Z,19.48
2022-08-23T20:11:47.917Z,19.50
2022-08-23T20:14:16.416Z,19.50
2022-08-23T20:16:47.347Z,19.49
2022-08-23T20:19:17.581Z,19.49
2022-08-23T20:21:45.532Z,19.48
2022-08-23T20:24:15.927Z,19.41
2022-08-23T20:26:46.333Z,19.40
2022-08-23T20:29:17.195Z,19.43
2022-08-23T20:31:55.970Z,19.35
2022-08-23T20:34:26.509Z,19.35
2022-08-23T20:36:56.582Z,19.44
2022-08-23T20:39:25.918Z,19.38
2022-08-23T20:41:56.319Z,19.34
2022-08-23T20:44:25.633Z,19.30
2022-08-23T20:46:58.714Z,19.32
2022-08-23T20:49:34.052Z,19.32
2022-08-23T20:52:03.572Z,19.32
2022-08-23T20:54:31.683Z,19.30
2022-08-23T20:57:00.775Z,19.29
2022-08-23T20:59:28.956Z,19.32
2022-08-23T21:01:58.564Z,19.37
2022-08-23T21:04:30.215Z,19.38
2022-08-23T21:06:58.646Z,19.40
2022-08-23T21:09:29.728Z,19.39
2022-08-23T21:11:59.198Z,19.35
2022-08-23T21:14:27.541Z,19.34
2022-08-23T21:16:56.955Z,19.34
2022-08-23T21:19:25.534Z,19.34
2022-08-23T21:21:55.183Z,19.36
2022-08-23T21:24:24.046Z,19.35
2022-08-23T21:26:52.563Z,19.36
2022-08-23T21:29:21.532Z,19.34
2022-08-23T21:31:51.339Z,19.33
2022-08-23T21:34:19.404Z,19.31
2022-08-23T21:36:53.080Z,19.33
2022-08-23T21:39:22.108Z,19.39
2022-08-23T21:41:50.795Z,19.35
2022-08-23T21:44:20.909Z,19.31
2022-08-23T21:46:49.821Z,19.33
2022-08-23T21:49:20.196Z,19.33
2022-08-23T21:51:49.069Z,19.34
2022-08-23T21:54:17.948Z,19.34
2022-08-23T21:56:45.990Z,19.34
2022-08-23T21:59:20.500Z,19.34
2022-08-23T22:01:50.480Z,19.34
2022-08-23T22:04:19.560Z,19.42
2022-08-23T22:06:48.516Z,19.47
2022-08-23T22:09:19.419Z,19.44
2022-08-23T22:11:48.785Z,19.45
2022-08-23T22:14:23.427Z,19.46
2022-08-23T22:16:55.381Z,19.43
2022-08-23T22:19:24.201Z,19.42
2022-08-23T22:21:53.637Z,19.42
2022-08-23T22:24:25.966Z,19.42
2022-08-23T22:26:55.648Z,19.43
2022-08-23T22:29:24.543Z,19.42
2022-08-23T22:31:52.539Z,19.42
2022-08-23T22:34:22.644Z,19.41
2022-08-23T22:36:52.688Z,19.37
2022-08-23T22:39:22.867Z,19.34
2022-08-23T22:41:53.384Z,19.34
2022-08-23T22:44:23.191Z,19.34
2022-08-23T22:46:53.277Z,19.34
2022-08-23T22:49:22.725Z,19.35
2022-08-23T22:51:56.490Z,19.36
2022-08-23T22:54:25.846Z,19.34
2022-08-23T22:56:55.976Z,19.33
2022-08-23T22:59:32.368Z,19.34
2022-08-23T23:02:03.887Z,19.32
2022-08-23T23:04:36.256Z,19.32
2022-08-23T23:07:05.496Z,19.32
2022-08-23T23:09:36.911Z,19.32
2022-08-23T23:12:06.943Z,19.33
2022-08-23T23:14:35.443Z,19.33
2022-08-23T23:17:03.848Z,19.33
2022-08-23T23:20:07.365Z,19.34
2022-08-23T23:22:36.371Z,19.31
2022-08-23T23:25:08.184Z,19.31
2022-08-23T23:27:37.747Z,19.30
2022-08-23T23:30:13.651Z,19.29
2022-08-23T23:32:43.218Z,19.30
2022-08-23T23:35:14.766Z,19.32
2022-08-23T23:37:44.697Z,19.32
2022-08-23T23:40:17.373Z,19.31
2022-08-23T23:42:45.873Z,19.32
2022-08-23T23:45:14.750Z,19.33
2022-08-23T23:47:44.279Z,19.32
2022-08-23T23:50:15.281Z,19.33
2022-08-23T23:52:44.517Z,19.34
2022-08-23T23:55:16.009Z,19.33
2022-08-23T23:57:51.242Z,19.33
